createdAt,value
2016-11-03T00:00:21.727Z,80.66
2016-11-03T00:01:14.942Z,80.69
2016-11-03T00:01:48.181Z,80.78
2016-11-03T00:02:12.867Z,80.76
2016-11-03T00:02:36.824Z,80.50
2016-11-03T00:02:58.557Z,80.38
2016-11-03T00:03:51.562Z,80.42
2016-11-03T00:04:16.107Z,80.60
2016-11-03T00:04:37.852Z,80.68
2016-11-03T00:04:59.582Z,80.76
2016-11-03T00:05:24.138Z,81.09
2016-11-03T00:06:02.682Z,81.21
2016-11-03T00:06:38.563Z,81.02
2016-11-03T00:07:04.949Z,81.00
2016-11-03T00:07:37.713Z,81.04
2016-11-03T00:08:07.617Z,80.80
2016-11-03T00:08:29.197Z,81.02
2016-11-03T00:09:03.078Z,81.45
2016-11-03T00:09:32.388Z,81.48
2016-11-03T00:10:51.416Z,81.36
2016-11-03T00:11:17.854Z,81.37
2016-11-03T00:12:20.148Z,81.60
2016-11-03T00:12:54.023Z,81.86
2016-11-03T00:13:32.741Z,82.11
2016-11-03T00:14:00.910Z,82.12
2016-11-03T00:14:30.429Z,82.28
2016-11-03T00:14:54.255Z,82.49
2016-11-03T00:15:30.580Z,82.71
2016-11-03T00:15:57.025Z,82.71
2016-11-03T00:17:08.793Z,83.28
2016-11-03T00:18:18.767Z,83.12
2016-11-03T00:18:47.378Z,83.05
2016-11-03T00:19:17.342Z,82.80
2016-11-03T00:19:46.136Z,82.55
2016-11-03T00:20:17.972Z,82.62
2016-11-03T00:20:44.298Z,83.01
2016-11-03T00:21:10.689Z,82.92
2016-11-03T00:21:40.228Z,82.90
2016-11-03T00:22:06.846Z,82.99
2016-11-03T00:22:35.324Z,83.10
2016-11-03T00:23:04.075Z,83.17
2016-11-03T00:23:36.868Z,83.36
2016-11-03T00:24:01.140Z,83.69
2016-11-03T00:24:38.111Z,83.94
2016-11-03T00:25:11.451Z,83.37
2016-11-03T00:25:35.798Z,83.29
2016-11-03T00:26:02.181Z,82.91
2016-11-03T00:27:07.394Z,83.19
2016-11-03T00:27:31.182Z,82.79
2016-11-03T00:27:59.521Z,82.59
2016-11-03T00:29:44.148Z,82.85
2016-11-03T00:29:50.130Z,82.86
2016-11-03T00:31:03.583Z,82.71
2016-11-03T00:31:39.311Z,83.52
2016-11-03T00:32:47.605Z,83.48
2016-11-03T00:33:24.473Z,83.40
2016-11-03T00:34:00.799Z,83.42
2016-11-03T00:34:27.697Z,83.59
2016-11-03T00:34:56.969Z,83.55
2016-11-03T00:35:23.336Z,83.33
2016-11-03T00:36:31.012Z,83.09
2016-11-03T00:37:02.804Z,82.90
2016-11-03T00:37:34.225Z,83.07
2016-11-03T00:38:03.182Z,83.07
2016-11-03T00:38:56.610Z,82.71
2016-11-03T00:39:25.118Z,82.71
2016-11-03T00:39:49.684Z,82.59
2016-11-03T00:41:29.096Z,82.41
2016-11-03T00:42:01.372Z,82.44
2016-11-03T00:42:31.368Z,82.64
2016-11-03T00:43:01.141Z,82.25
2016-11-03T00:43:35.109Z,82.05
2016-11-03T00:44:18.867Z,82.10
2016-11-03T00:44:39.702Z,82.03
2016-11-03T00:45:06.074Z,82.06
2016-11-03T00:45:35.002Z,81.73
2016-11-03T00:46:39.640Z,81.92
2016-11-03T00:47:15.676Z,81.76
2016-11-03T00:47:49.451Z,81.90
2016-11-03T00:48:30.282Z,81.79
2016-11-03T00:49:58.901Z,81.82
2016-11-03T00:50:36.789Z,81.87
2016-11-03T00:51:41.983Z,81.45
2016-11-03T00:51:42.475Z,81.71
2016-11-03T00:52:10.888Z,81.08
2016-11-03T00:52:44.635Z,81.10
2016-11-03T00:53:14.021Z,80.99
2016-11-03T00:53:45.361Z,81.17
2016-11-03T00:54:19.253Z,81.00
2016-11-03T00:55:12.116Z,80.79
2016-11-03T00:55:45.659Z,80.82
2016-11-03T00:56:47.646Z,80.71
2016-11-03T00:57:17.128Z,80.71
2016-11-03T00:58:23.159Z,80.96
2016-11-03T00:59:49.490Z,81.63
2016-11-03T01:00:25.536Z,81.98
2016-11-03T01:00:56.544Z,82.04
2016-11-03T01:01:18.288Z,81.94
2016-11-03T01:01:44.585Z,81.93
2016-11-03T01:02:13.232Z,81.85
2016-11-03T01:02:37.585Z,81.90
2016-11-03T01:03:07.117Z,82.33
2016-11-03T01:03:35.920Z,82.13
2016-11-03T01:04:45.209Z,81.68
2016-11-03T01:06:09.727Z,81.99
2016-11-03T01:06:41.185Z,82.23
2016-11-03T01:07:02.932Z,82.18
2016-11-03T01:07:31.838Z,82.18
2016-11-03T01:08:05.682Z,82.08
2016-11-03T01:08:32.521Z,82.09
2016-11-03T01:09:06.329Z,82.07
2016-11-03T01:09:35.937Z,81.60
2016-11-03T01:10:11.490Z,81.33
2016-11-03T01:10:33.553Z,81.32
2016-11-03T01:11:09.169Z,80.79
2016-11-03T01:11:51.501Z,80.83
2016-11-03T01:12:09.938Z,80.97
2016-11-03T01:13:04.828Z,80.91
2016-11-03T01:13:39.435Z,81.03
2016-11-03T01:14:33.659Z,81.04
2016-11-03T01:16:10.798Z,81.64
2016-11-03T01:16:47.066Z,81.82
2016-11-03T01:17:39.664Z,81.41
2016-11-03T01:18:08.235Z,81.42
2016-11-03T01:18:29.979Z,81.58
2016-11-03T01:18:51.697Z,81.76
2016-11-03T01:19:13.416Z,81.72
2016-11-03T01:19:35.196Z,81.84
2016-11-03T01:19:56.935Z,81.96
2016-11-03T01:20:18.677Z,81.62
2016-11-03T01:20:45.176Z,81.62
2016-11-03T01:21:06.909Z,81.75
2016-11-03T01:21:33.261Z,81.61
2016-11-03T01:22:03.963Z,81.99
2016-11-03T01:22:21.343Z,82.04
2016-11-03T01:22:43.079Z,81.96
2016-11-03T01:23:04.825Z,82.01
2016-11-03T01:23:29.159Z,82.27
2016-11-03T01:23:50.895Z,82.23
2016-11-03T01:24:17.476Z,82.17
2016-11-03T01:24:42.783Z,82.11
2016-11-03T01:25:35.694Z,82.20
2016-11-03T01:25:59.652Z,81.91
2016-11-03T01:26:28.181Z,81.75
2016-11-03T01:26:49.898Z,81.80
2016-11-03T01:27:14.367Z,81.73
2016-11-03T01:28:05.516Z,81.54
2016-11-03T01:28:31.873Z,81.44
2016-11-03T01:28:58.389Z,81.53
2016-11-03T01:29:54.942Z,81.61
2016-11-03T01:30:21.118Z,81.65
2016-11-03T01:30:46.877Z,81.49
2016-11-03T01:31:10.820Z,81.80
2016-11-03T01:31:35.246Z,81.91
2016-11-03T01:33:04.075Z,82.08
2016-11-03T01:33:33.412Z,82.19
2016-11-03T01:33:57.394Z,82.25
2016-11-03T01:35:16.769Z,81.91
2016-11-03T01:35:43.821Z,81.90
2016-11-03T01:36:04.852Z,81.82
2016-11-03T01:36:34.036Z,81.90
2016-11-03T01:37:29.765Z,82.30
2016-11-03T01:37:51.489Z,82.35
2016-11-03T01:38:13.223Z,82.36
2016-11-03T01:38:34.988Z,82.20
2016-11-03T01:38:56.752Z,82.12
2016-11-03T01:39:18.469Z,82.05
2016-11-03T01:39:40.192Z,82.25
2016-11-03T01:40:01.910Z,82.42
2016-11-03T01:40:23.647Z,82.49
2016-11-03T01:40:45.367Z,82.46
2016-11-03T01:41:07.284Z,82.27
2016-11-03T01:41:29.014Z,82.07
2016-11-03T01:41:50.742Z,82.31
2016-11-03T01:42:12.557Z,82.26
2016-11-03T01:42:34.272Z,82.24
2016-11-03T01:42:55.993Z,82.42
2016-11-03T01:43:17.721Z,82.24
2016-11-03T01:43:39.453Z,82.29
2016-11-03T01:44:01.190Z,82.64
2016-11-03T01:44:22.933Z,82.74
2016-11-03T01:44:44.659Z,82.68
2016-11-03T01:45:06.391Z,82.61
2016-11-03T01:45:28.107Z,82.62
2016-11-03T01:45:49.830Z,82.40
2016-11-03T01:46:11.544Z,82.56
2016-11-03T01:46:33.260Z,82.69
2016-11-03T01:46:54.984Z,82.69
2016-11-03T01:47:16.705Z,82.58
2016-11-03T01:47:38.422Z,82.66
2016-11-03T01:48:00.146Z,82.87
2016-11-03T01:48:21.882Z,83.07
2016-11-03T01:48:43.612Z,82.91
2016-11-03T01:49:05.330Z,82.92
2016-11-03T01:49:30.074Z,82.78
2016-11-03T01:49:51.821Z,82.73
2016-11-03T01:50:16.155Z,82.70
2016-11-03T01:50:42.643Z,82.50
2016-11-03T01:51:04.381Z,82.52
2016-11-03T01:51:30.887Z,82.58
2016-11-03T01:51:52.610Z,82.60
2016-11-03T01:52:14.348Z,82.58
2016-11-03T01:52:40.726Z,82.54
2016-11-03T01:53:04.436Z,82.64
2016-11-03T01:53:26.180Z,82.68
2016-11-03T01:53:52.716Z,82.59
2016-11-03T01:54:17.113Z,82.46
2016-11-03T01:54:38.829Z,82.41
2016-11-03T01:55:00.591Z,82.48
2016-11-03T01:55:24.515Z,82.44
2016-11-03T01:55:46.251Z,82.24
2016-11-03T01:56:14.793Z,82.28
2016-11-03T01:56:45.910Z,82.53
2016-11-03T01:57:26.986Z,82.41
2016-11-03T01:57:48.772Z,82.48
2016-11-03T01:58:15.287Z,82.47
2016-11-03T01:58:41.782Z,82.26
2016-11-03T01:59:03.527Z,82.32
2016-11-03T01:59:28.203Z,82.55
2016-11-03T01:59:54.371Z,82.59
2016-11-03T02:00:18.339Z,82.51
2016-11-03T02:00:45.229Z,82.52
2016-11-03T02:01:16.540Z,82.49
2016-11-03T02:01:45.403Z,82.61
2016-11-03T02:02:11.820Z,82.88
2016-11-03T02:03:09.096Z,83.06
2016-11-03T02:03:35.870Z,82.93
2016-11-03T02:03:57.472Z,82.85
2016-11-03T02:04:26.189Z,82.86
2016-11-03T02:04:57.871Z,82.64
2016-11-03T02:05:21.049Z,82.60
2016-11-03T02:05:47.561Z,82.63
2016-11-03T02:06:21.530Z,82.83
2016-11-03T02:09:54.643Z,83.40
2016-11-03T02:11:33.835Z,83.30
2016-11-03T02:11:55.580Z,83.40
2016-11-03T02:12:23.929Z,83.66
2016-11-03T02:12:47.811Z,83.78
2016-11-03T02:13:19.586Z,83.88
2016-11-03T02:13:58.962Z,83.87
2016-11-03T02:14:26.332Z,84.17
2016-11-03T02:14:56.661Z,84.16
2016-11-03T02:15:22.940Z,84.09
2016-11-03T02:15:54.598Z,83.72
2016-11-03T02:16:26.275Z,83.54
2016-11-03T02:16:55.044Z,83.42
2016-11-03T02:17:19.231Z,83.49
2016-11-03T02:17:45.581Z,83.54
2016-11-03T02:18:40.338Z,83.76
2016-11-03T02:19:09.640Z,83.80
2016-11-03T02:19:35.994Z,83.70
2016-11-03T02:20:10.082Z,83.44
2016-11-03T02:20:39.794Z,83.60
2016-11-03T02:21:35.196Z,83.60
2016-11-03T02:21:43.935Z,83.41
2016-11-03T02:22:01.707Z,83.76
2016-11-03T02:22:23.409Z,83.63
2016-11-03T02:22:45.157Z,83.50
2016-11-03T02:23:06.891Z,83.42
2016-11-03T02:23:28.630Z,83.30
2016-11-03T02:23:57.537Z,83.18
2016-11-03T02:24:19.260Z,83.38
2016-11-03T02:24:40.982Z,83.41
2016-11-03T02:25:02.719Z,83.38
2016-11-03T02:25:24.465Z,83.45
2016-11-03T02:25:46.200Z,83.56
2016-11-03T02:26:07.931Z,83.66
2016-11-03T02:26:29.676Z,83.81
2016-11-03T02:26:51.406Z,83.69
2016-11-03T02:27:13.144Z,83.74
2016-11-03T02:27:34.882Z,83.65
2016-11-03T02:27:56.606Z,83.79
2016-11-03T02:28:18.340Z,83.71
2016-11-03T02:28:42.786Z,83.56
2016-11-03T02:29:04.514Z,83.51
2016-11-03T02:29:26.284Z,83.83
2016-11-03T02:29:48.034Z,84.04
2016-11-03T02:30:09.769Z,83.95
2016-11-03T02:30:31.521Z,83.68
2016-11-03T02:30:53.239Z,83.78
2016-11-03T02:31:14.973Z,83.97
2016-11-03T02:31:36.715Z,84.14
2016-11-03T02:31:58.720Z,84.07
2016-11-03T02:32:20.474Z,83.99
2016-11-03T02:32:42.207Z,84.00
2016-11-03T02:33:03.930Z,83.81
2016-11-03T02:33:25.666Z,83.81
2016-11-03T02:33:47.382Z,83.89
2016-11-03T02:34:09.118Z,83.95
2016-11-03T02:34:30.857Z,83.97
2016-11-03T02:34:52.599Z,83.79
2016-11-03T02:35:14.343Z,83.86
2016-11-03T02:35:36.085Z,83.88
2016-11-03T02:35:57.812Z,83.89
2016-11-03T02:36:19.535Z,83.77
2016-11-03T02:36:41.273Z,83.70
2016-11-03T02:37:02.998Z,83.74
2016-11-03T02:37:24.777Z,83.78
2016-11-03T02:38:13.002Z,83.83
2016-11-03T02:38:34.730Z,83.97
2016-11-03T02:38:56.454Z,83.93
2016-11-03T02:39:18.171Z,83.97
2016-11-03T02:39:39.901Z,84.20
2016-11-03T02:40:01.631Z,84.49
2016-11-03T02:40:23.371Z,84.48
2016-11-03T02:40:45.089Z,84.49
2016-11-03T02:41:06.850Z,84.29
2016-11-03T02:41:28.569Z,84.22
2016-11-03T02:41:50.294Z,84.07
2016-11-03T02:42:12.022Z,84.02
2016-11-03T02:42:33.746Z,84.05
2016-11-03T02:42:55.489Z,83.83
2016-11-03T02:43:17.225Z,83.66
2016-11-03T02:43:38.945Z,83.69
2016-11-03T02:44:00.669Z,83.73
2016-11-03T02:44:22.394Z,83.76
2016-11-03T02:44:44.107Z,83.75
2016-11-03T02:45:05.823Z,83.81
2016-11-03T02:45:27.537Z,83.84
2016-11-03T02:45:49.271Z,83.92
2016-11-03T02:46:11.003Z,83.95
2016-11-03T02:46:32.723Z,83.93
2016-11-03T02:46:54.454Z,83.83
2016-11-03T02:47:16.174Z,83.74
2016-11-03T02:47:37.895Z,83.81
2016-11-03T02:47:59.618Z,83.80
2016-11-03T02:48:21.370Z,83.84
2016-11-03T02:48:43.092Z,83.88
2016-11-03T02:49:04.810Z,84.09
2016-11-03T02:49:26.534Z,84.55
2016-11-03T02:49:48.246Z,84.67
2016-11-03T02:50:09.963Z,84.82
2016-11-03T02:50:31.683Z,84.75
2016-11-03T02:50:53.415Z,85.00
2016-11-03T02:51:15.144Z,85.22
2016-11-03T02:51:36.871Z,85.39
2016-11-03T02:51:58.591Z,85.10
2016-11-03T02:52:20.312Z,85.00
2016-11-03T02:52:42.034Z,84.85
2016-11-03T02:53:03.762Z,84.79
2016-11-03T02:53:25.484Z,84.66
2016-11-03T02:53:47.215Z,84.70
2016-11-03T02:54:08.947Z,84.58
2016-11-03T02:54:30.663Z,84.32
2016-11-03T02:54:52.389Z,84.25
2016-11-03T02:55:14.146Z,84.22
2016-11-03T02:55:35.865Z,84.28
2016-11-03T02:55:57.586Z,84.19
2016-11-03T02:56:19.304Z,84.20
2016-11-03T02:56:41.021Z,84.22
2016-11-03T02:57:02.736Z,84.31
2016-11-03T02:57:24.453Z,84.22
2016-11-03T02:57:46.179Z,84.04
2016-11-03T02:58:07.901Z,84.03
2016-11-03T02:58:29.630Z,84.12
2016-11-03T02:58:51.375Z,83.87
2016-11-03T02:59:13.090Z,83.90
2016-11-03T02:59:34.822Z,83.93
2016-11-03T02:59:56.538Z,83.98
2016-11-03T03:00:18.268Z,83.79
2016-11-03T03:00:40.006Z,83.70
2016-11-03T03:01:01.803Z,83.63
2016-11-03T03:01:23.520Z,83.54
2016-11-03T03:01:45.260Z,83.57
2016-11-03T03:02:06.985Z,83.61
2016-11-03T03:02:28.716Z,83.49
2016-11-03T03:02:52.686Z,83.36
2016-11-03T03:03:16.515Z,83.34
2016-11-03T03:03:40.348Z,83.38
2016-11-03T03:04:04.166Z,83.46
2016-11-03T03:04:25.902Z,83.68
2016-11-03T03:04:47.623Z,83.95
2016-11-03T03:05:14.121Z,83.94
2016-11-03T03:05:45.385Z,83.86
2016-11-03T03:06:07.118Z,83.99
2016-11-03T03:06:31.258Z,84.14
2016-11-03T03:06:52.980Z,84.20
2016-11-03T03:07:14.710Z,84.39
2016-11-03T03:07:38.651Z,84.49
2016-11-03T03:08:00.381Z,84.50
2016-11-03T03:08:22.115Z,84.58
2016-11-03T03:08:48.611Z,84.47
2016-11-03T03:09:10.359Z,84.38
2016-11-03T03:09:32.092Z,84.69
2016-11-03T03:09:58.587Z,84.61
2016-11-03T03:10:20.322Z,84.59
2016-11-03T03:10:42.039Z,84.50
2016-11-03T03:11:03.761Z,84.33
2016-11-03T03:11:25.611Z,84.36
2016-11-03T03:11:47.211Z,84.32
2016-11-03T03:12:08.963Z,84.30
2016-11-03T03:12:30.686Z,84.22
2016-11-03T03:12:52.402Z,84.41
2016-11-03T03:13:14.117Z,84.74
2016-11-03T03:13:35.839Z,84.83
2016-11-03T03:13:57.565Z,84.63
2016-11-03T03:14:19.297Z,84.41
2016-11-03T03:14:41.032Z,84.17
2016-11-03T03:15:02.754Z,84.11
2016-11-03T03:15:24.483Z,84.08
2016-11-03T03:15:47.205Z,84.48
2016-11-03T03:16:08.926Z,84.54
2016-11-03T03:16:30.659Z,84.44
2016-11-03T03:16:52.386Z,84.28
2016-11-03T03:17:14.114Z,84.40
2016-11-03T03:17:35.839Z,84.54
2016-11-03T03:17:57.562Z,84.61
2016-11-03T03:18:19.282Z,84.48
2016-11-03T03:18:41.013Z,84.41
2016-11-03T03:19:02.746Z,84.29
2016-11-03T03:19:24.474Z,84.45
2016-11-03T03:19:46.194Z,84.67
2016-11-03T03:20:07.917Z,84.58
2016-11-03T03:20:29.633Z,84.68
2016-11-03T03:20:51.368Z,84.67
2016-11-03T03:21:13.092Z,84.48
2016-11-03T03:21:34.822Z,84.35
2016-11-03T03:21:56.534Z,84.45
2016-11-03T03:22:18.252Z,84.44
2016-11-03T03:22:39.974Z,84.63
2016-11-03T03:23:01.693Z,84.69
2016-11-03T03:23:23.414Z,84.75
2016-11-03T03:23:45.137Z,84.97
2016-11-03T03:24:06.851Z,85.03
2016-11-03T03:24:28.575Z,84.98
2016-11-03T03:24:50.291Z,84.91
2016-11-03T03:25:12.020Z,85.00
2016-11-03T03:25:33.731Z,85.11
2016-11-03T03:25:55.453Z,85.21
2016-11-03T03:26:17.171Z,85.06
2016-11-03T03:26:38.887Z,84.70
2016-11-03T03:27:00.605Z,84.66
2016-11-03T03:27:22.333Z,84.56
2016-11-03T03:27:44.063Z,84.45
2016-11-03T03:28:05.812Z,84.66
2016-11-03T03:28:27.524Z,84.67
2016-11-03T03:28:49.253Z,84.67
2016-11-03T03:29:10.988Z,84.62
2016-11-03T03:29:32.716Z,84.72
2016-11-03T03:29:54.439Z,84.84
2016-11-03T03:30:16.175Z,85.12
2016-11-03T03:30:37.881Z,85.15
2016-11-03T03:30:59.597Z,85.16
2016-11-03T03:31:21.318Z,84.99
2016-11-03T03:31:43.041Z,84.69
2016-11-03T03:32:04.781Z,84.51
2016-11-03T03:32:26.508Z,84.33
2016-11-03T03:32:48.228Z,84.10
2016-11-03T03:33:09.948Z,84.02
2016-11-03T03:33:31.675Z,84.06
2016-11-03T03:33:53.395Z,84.16
2016-11-03T03:34:15.166Z,84.21
2016-11-03T03:34:36.896Z,84.25
2016-11-03T03:34:58.615Z,84.37
2016-11-03T03:35:20.345Z,84.36
2016-11-03T03:35:42.064Z,84.60
2016-11-03T03:36:03.795Z,84.67
2016-11-03T03:36:25.519Z,84.59
2016-11-03T03:36:47.247Z,84.54
2016-11-03T03:37:08.969Z,84.48
2016-11-03T03:37:30.701Z,84.25
2016-11-03T03:37:52.426Z,84.19
2016-11-03T03:38:14.155Z,84.28
2016-11-03T03:38:35.868Z,84.25
2016-11-03T03:38:57.605Z,84.21
2016-11-03T03:39:19.326Z,84.09
2016-11-03T03:39:41.061Z,84.16
2016-11-03T03:40:02.775Z,84.14
2016-11-03T03:40:24.543Z,84.18
2016-11-03T03:40:46.264Z,84.23
2016-11-03T03:41:07.995Z,84.30
2016-11-03T03:41:29.705Z,84.50
2016-11-03T03:41:56.203Z,84.37
2016-11-03T03:42:17.927Z,84.69
2016-11-03T03:42:39.658Z,85.13
2016-11-03T03:43:01.387Z,85.60
2016-11-03T03:43:23.105Z,85.91
2016-11-03T03:43:44.822Z,86.17
2016-11-03T03:44:06.546Z,86.28
2016-11-03T03:44:29.259Z,86.42
2016-11-03T03:44:50.984Z,86.46
2016-11-03T03:45:12.714Z,86.16
2016-11-03T03:45:34.436Z,85.83
2016-11-03T03:45:56.157Z,85.77
2016-11-03T03:46:17.884Z,85.82
2016-11-03T03:46:39.735Z,85.89
2016-11-03T03:47:01.460Z,85.84
2016-11-03T03:47:23.216Z,85.89
2016-11-03T03:47:44.951Z,85.87
2016-11-03T03:48:06.674Z,86.09
2016-11-03T03:48:28.403Z,86.14
2016-11-03T03:48:50.131Z,85.75
2016-11-03T03:49:11.867Z,85.48
2016-11-03T03:49:33.599Z,85.28
2016-11-03T03:49:55.325Z,85.20
2016-11-03T03:50:17.065Z,85.62
2016-11-03T03:50:38.766Z,85.98
2016-11-03T03:51:00.476Z,85.83
2016-11-03T03:51:22.317Z,85.86
2016-11-03T03:51:44.041Z,85.83
2016-11-03T03:52:05.759Z,85.76
2016-11-03T03:52:27.487Z,85.67
2016-11-03T03:52:49.215Z,85.74
2016-11-03T03:53:10.937Z,86.03
2016-11-03T03:54:11.441Z,86.09
2016-11-03T03:54:33.176Z,86.10
2016-11-03T03:54:54.895Z,86.11
2016-11-03T03:55:16.613Z,85.91
2016-11-03T03:55:38.337Z,85.80
2016-11-03T03:56:00.053Z,85.96
2016-11-03T03:56:21.772Z,85.92
2016-11-03T03:56:43.492Z,85.93
2016-11-03T03:57:05.208Z,85.78
2016-11-03T03:57:26.926Z,85.69
2016-11-03T03:57:48.638Z,85.55
2016-11-03T03:58:10.359Z,85.41
2016-11-03T03:58:32.076Z,85.25
2016-11-03T03:58:53.800Z,85.22
2016-11-03T03:59:15.526Z,85.32
2016-11-03T03:59:37.264Z,85.64
2016-11-03T03:59:58.983Z,85.71
2016-11-03T04:00:20.703Z,85.46
2016-11-03T04:00:42.422Z,85.60
2016-11-03T04:01:04.146Z,85.70
2016-11-03T04:01:26.861Z,85.88
2016-11-03T04:01:48.577Z,85.83
2016-11-03T04:02:10.296Z,85.98
2016-11-03T04:02:32.017Z,85.99
2016-11-03T04:02:53.738Z,86.09
2016-11-03T04:03:15.466Z,86.05
2016-11-03T04:03:37.192Z,85.78
2016-11-03T04:03:58.910Z,85.57
2016-11-03T04:04:20.626Z,85.80
2016-11-03T04:04:42.347Z,85.91
2016-11-03T04:05:08.837Z,85.72
2016-11-03T04:05:30.560Z,85.48
2016-11-03T04:05:52.290Z,85.37
2016-11-03T04:06:14.014Z,85.21
2016-11-03T04:06:35.739Z,85.26
2016-11-03T04:07:02.228Z,85.06
2016-11-03T04:07:23.949Z,85.27
2016-11-03T04:07:45.668Z,85.41
2016-11-03T04:08:07.410Z,85.47
2016-11-03T04:08:29.129Z,85.52
2016-11-03T04:08:50.863Z,85.38
2016-11-03T04:09:12.603Z,85.54
2016-11-03T04:09:34.319Z,85.65
2016-11-03T04:09:56.047Z,85.65
2016-11-03T04:10:17.765Z,85.78
2016-11-03T04:10:39.519Z,85.63
2016-11-03T04:11:01.239Z,85.42
2016-11-03T04:11:28.743Z,85.36
2016-11-03T04:12:41.857Z,85.36
2016-11-03T04:13:03.597Z,85.50
2016-11-03T04:13:25.337Z,85.52
2016-11-03T04:13:47.063Z,85.79
2016-11-03T04:14:08.785Z,85.99
2016-11-03T04:14:33.478Z,85.91
2016-11-03T04:14:55.076Z,85.67
2016-11-03T04:15:19.634Z,85.62
2016-11-03T04:15:47.463Z,85.93
2016-11-03T04:16:09.160Z,85.81
2016-11-03T04:17:43.616Z,85.82
2016-11-03T04:18:10.124Z,86.06
2016-11-03T04:18:36.607Z,86.15
2016-11-03T04:18:58.346Z,86.22
2016-11-03T04:19:22.101Z,86.17
2016-11-03T04:19:47.437Z,86.00
2016-11-03T04:20:09.191Z,86.01
2016-11-03T04:20:30.905Z,85.93
2016-11-03T04:20:58.035Z,86.43
2016-11-03T04:21:24.527Z,86.26
2016-11-03T04:21:48.880Z,86.22
2016-11-03T04:22:20.135Z,85.97
2016-11-03T04:22:41.826Z,86.12
2016-11-03T04:23:03.544Z,86.13
2016-11-03T04:23:26.275Z,86.18
2016-11-03T04:23:47.996Z,86.11
2016-11-03T04:24:09.738Z,86.03
2016-11-03T04:24:31.456Z,86.01
2016-11-03T04:24:53.176Z,86.02
2016-11-03T04:25:14.899Z,86.26
2016-11-03T04:25:36.619Z,86.14
2016-11-03T04:25:58.333Z,86.33
2016-11-03T04:26:20.049Z,86.79
2016-11-03T04:26:41.772Z,87.00
2016-11-03T04:27:03.486Z,86.72
2016-11-03T04:27:25.201Z,86.63
2016-11-03T04:27:46.938Z,86.32
2016-11-03T04:28:08.672Z,86.39
2016-11-03T04:28:30.400Z,86.50
2016-11-03T04:29:23.873Z,86.23
2016-11-03T04:29:50.067Z,86.36
2016-11-03T04:30:11.808Z,86.31
2016-11-03T04:30:33.524Z,86.48
2016-11-03T04:30:57.662Z,86.68
2016-11-03T04:31:19.441Z,86.60
2016-11-03T04:31:41.160Z,86.51
2016-11-03T04:32:05.502Z,86.49
2016-11-03T04:32:27.258Z,86.46
2016-11-03T04:32:48.975Z,86.29
2016-11-03T04:33:10.702Z,85.93
2016-11-03T04:33:32.437Z,86.04
2016-11-03T04:33:54.159Z,86.18
2016-11-03T04:34:15.918Z,86.30
2016-11-03T04:34:37.641Z,86.25
2016-11-03T04:34:59.370Z,86.62
2016-11-03T04:35:21.090Z,87.06
2016-11-03T04:35:45.437Z,86.93
2016-11-03T04:36:07.171Z,87.23
2016-11-03T04:36:28.896Z,87.35
2016-11-03T04:36:50.623Z,87.53
2016-11-03T04:37:12.364Z,87.54
2016-11-03T04:37:36.117Z,87.60
2016-11-03T04:37:57.817Z,87.34
2016-11-03T04:38:22.299Z,87.08
2016-11-03T04:38:44.032Z,87.02
2016-11-03T04:39:05.755Z,86.79
2016-11-03T04:39:27.487Z,86.69
2016-11-03T04:39:49.250Z,86.83
2016-11-03T04:40:15.738Z,87.10
2016-11-03T04:40:37.494Z,86.84
2016-11-03T04:41:04.600Z,86.67
2016-11-03T04:41:26.318Z,86.38
2016-11-03T04:41:48.077Z,86.20
2016-11-03T04:42:09.786Z,86.12
2016-11-03T04:42:34.339Z,86.20
2016-11-03T04:42:56.049Z,86.04
2016-11-03T04:43:17.789Z,86.02
2016-11-03T04:43:42.323Z,86.52
2016-11-03T04:44:42.126Z,87.04
2016-11-03T04:45:08.342Z,87.01
2016-11-03T04:45:37.271Z,86.85
2016-11-03T04:46:16.201Z,86.36
2016-11-03T04:46:39.938Z,86.31
2016-11-03T04:47:11.198Z,86.73
2016-11-03T04:48:55.236Z,87.56
2016-11-03T04:49:24.178Z,87.42
2016-11-03T04:49:54.297Z,87.43
2016-11-03T04:50:15.920Z,87.42
2016-11-03T04:50:44.440Z,87.82
2016-11-03T04:51:32.533Z,87.92
2016-11-03T04:52:01.047Z,88.25
2016-11-03T04:52:27.570Z,88.08
2016-11-03T04:54:03.953Z,87.55
2016-11-03T04:55:10.812Z,87.47
2016-11-03T05:00:49.273Z,87.20
2016-11-03T05:01:11.655Z,87.51
2016-11-03T05:01:33.384Z,87.68
2016-11-03T05:01:55.113Z,87.74
2016-11-03T05:02:16.840Z,87.50
2016-11-03T05:02:38.564Z,87.55
2016-11-03T05:03:00.316Z,87.27
2016-11-03T05:03:22.040Z,87.44
2016-11-03T05:03:43.767Z,87.61
2016-11-03T05:04:05.495Z,87.67
2016-11-03T05:04:27.221Z,87.75
2016-11-03T05:04:48.964Z,87.66
2016-11-03T05:05:15.464Z,87.78
2016-11-03T05:05:37.193Z,87.68
2016-11-03T05:05:58.922Z,87.31
2016-11-03T05:06:20.661Z,86.90
2016-11-03T05:06:42.494Z,87.04
2016-11-03T05:07:04.230Z,87.13
2016-11-03T05:07:28.163Z,87.22
2016-11-03T05:07:49.884Z,87.25
2016-11-03T05:08:11.619Z,87.04
2016-11-03T05:08:33.338Z,86.97
2016-11-03T05:10:47.174Z,86.34
2016-11-03T05:11:08.914Z,86.35
2016-11-03T05:13:19.662Z,86.63
2016-11-03T05:13:41.384Z,86.38
2016-11-03T05:14:03.117Z,86.51
2016-11-03T05:14:24.853Z,86.39
2016-11-03T05:14:46.612Z,86.19
2016-11-03T05:15:08.345Z,86.34
2016-11-03T05:15:30.120Z,86.60
2016-11-03T05:15:51.852Z,87.03
2016-11-03T05:16:13.591Z,87.08
2016-11-03T05:16:35.334Z,86.92
2016-11-03T05:16:57.071Z,86.75
2016-11-03T05:17:18.923Z,86.71
2016-11-03T05:17:48.176Z,86.57
2016-11-03T05:18:24.030Z,86.73
2016-11-03T05:18:45.750Z,87.04
2016-11-03T05:19:07.469Z,87.04
2016-11-03T05:19:29.194Z,87.19
2016-11-03T05:19:50.915Z,87.17
2016-11-03T05:20:12.658Z,87.17
2016-11-03T05:20:34.366Z,87.28
2016-11-03T05:20:56.099Z,87.35
2016-11-03T05:21:17.830Z,87.23
2016-11-03T05:21:39.559Z,87.26
2016-11-03T05:22:01.293Z,87.19
2016-11-03T05:22:23.016Z,87.09
2016-11-03T05:22:44.764Z,86.90
2016-11-03T05:23:06.487Z,87.02
2016-11-03T05:23:28.210Z,87.00
2016-11-03T05:23:49.933Z,86.87
2016-11-03T05:24:11.663Z,86.68
2016-11-03T05:24:33.386Z,86.83
2016-11-03T05:24:55.132Z,86.85
2016-11-03T05:25:16.856Z,86.96
2016-11-03T05:25:38.575Z,87.03
2016-11-03T05:26:00.319Z,87.08
2016-11-03T05:26:22.052Z,87.10
2016-11-03T05:26:43.771Z,87.24
2016-11-03T05:27:05.512Z,87.52
2016-11-03T05:27:27.245Z,87.63
2016-11-03T05:27:48.979Z,87.38
2016-11-03T05:28:10.713Z,87.37
2016-11-03T05:28:32.442Z,87.40
2016-11-03T05:28:54.174Z,87.23
2016-11-03T05:29:15.904Z,87.27
2016-11-03T05:29:37.638Z,86.95
2016-11-03T05:29:59.368Z,87.12
2016-11-03T05:30:21.176Z,86.87
2016-11-03T05:30:42.900Z,86.83
2016-11-03T05:31:04.621Z,86.71
2016-11-03T05:31:26.343Z,87.07
2016-11-03T05:32:19.338Z,87.11
2016-11-03T05:32:41.059Z,87.38
2016-11-03T05:33:02.871Z,87.71
2016-11-03T05:33:55.668Z,87.80
2016-11-03T05:34:17.393Z,87.73
2016-11-03T05:34:39.129Z,87.58
2016-11-03T05:35:00.850Z,87.58
2016-11-03T05:35:22.667Z,87.49
2016-11-03T05:35:44.384Z,87.47
2016-11-03T05:36:06.113Z,87.64
2016-11-03T05:36:27.951Z,87.67
2016-11-03T05:36:49.682Z,87.84
2016-11-03T05:37:11.405Z,87.91
2016-11-03T05:37:33.130Z,87.83
2016-11-03T05:37:54.858Z,87.58
2016-11-03T05:38:16.678Z,87.60
2016-11-03T05:39:12.648Z,87.45
2016-11-03T05:39:34.369Z,87.68
2016-11-03T05:39:56.110Z,87.73
2016-11-03T05:40:17.843Z,87.55
2016-11-03T05:40:39.586Z,87.54
2016-11-03T05:41:01.309Z,87.58
2016-11-03T05:41:23.027Z,87.65
2016-11-03T05:41:44.756Z,87.88
2016-11-03T05:42:06.491Z,88.06
2016-11-03T05:42:28.220Z,88.06
2016-11-03T05:42:49.946Z,87.79
2016-11-03T05:43:11.662Z,87.70
2016-11-03T05:43:33.387Z,87.65
2016-11-03T05:43:55.112Z,87.72
2016-11-03T05:44:16.851Z,87.82
2016-11-03T05:44:38.575Z,87.79
2016-11-03T05:45:00.312Z,87.95
2016-11-03T05:45:22.030Z,88.02
2016-11-03T05:45:43.749Z,88.12
2016-11-03T05:46:05.467Z,87.93
2016-11-03T05:46:27.204Z,87.63
2016-11-03T05:47:30.565Z,87.13
2016-11-03T05:47:52.297Z,87.10
2016-11-03T05:48:14.028Z,87.45
2016-11-03T05:48:35.748Z,87.68
2016-11-03T05:48:57.473Z,87.77
2016-11-03T05:49:19.203Z,87.72
2016-11-03T05:49:40.999Z,87.78
2016-11-03T05:50:05.574Z,87.80
2016-11-03T05:50:27.309Z,87.60
2016-11-03T05:50:49.031Z,87.52
2016-11-03T05:51:10.750Z,87.76
2016-11-03T05:51:32.558Z,87.96
2016-11-03T05:51:54.273Z,88.13
2016-11-03T05:52:16.007Z,87.85
2016-11-03T05:52:37.796Z,87.66
2016-11-03T05:52:59.520Z,87.40